sensor_id;sensor_type;location;lat;lon;timestamp;temperature;humidity
40538;DHT22;27925;41.874;12.526;2023-08-30T00:00:44;21.20;72.50
40538;DHT22;27925;41.874;12.526;2023-08-30T00:06:03;21.20;73.00
40538;DHT22;27925;41.874;12.526;2023-08-30T00:08:30;21.20;72.20
40538;DHT22;27925;41.874;12.526;2023-08-30T00:10:55;21.20;72.00
40538;DHT22;27925;41.874;12.526;2023-08-30T00:13:24;21.30;72.30
40538;DHT22;27925;41.874;12.526;2023-08-30T00:15:50;21.20;71.90
40538;DHT22;27925;41.874;12.526;2023-08-30T00:18:16;21.10;72.00
40538;DHT22;27925;41.874;12.526;2023-08-30T00:20:44;21.10;72.10
40538;DHT22;27925;41.874;12.526;2023-08-30T00:23:10;21.10;72.20
40538;DHT22;27925;41.874;12.526;2023-08-30T00:25:36;21.20;72.10
40538;DHT22;27925;41.874;12.526;2023-08-30T00:28:01;21.10;72.20
40538;DHT22;27925;41.874;12.526;2023-08-30T00:30:27;21.10;72.20
40538;DHT22;27925;41.874;12.526;2023-08-30T00:32:53;21.10;72.00
40538;DHT22;27925;41.874;12.526;2023-08-30T00:35:19;21.10;72.80
40538;DHT22;27925;41.874;12.526;2023-08-30T00:37:44;21.10;71.90
40538;DHT22;27925;41.874;12.526;2023-08-30T00:40:10;21.10;71.90
40538;DHT22;27925;41.874;12.526;2023-08-30T00:42:36;21.20;71.90
40538;DHT22;27925;41.874;12.526;2023-08-30T00:45:03;21.20;72.50
40538;DHT22;27925;41.874;12.526;2023-08-30T00:47:29;21.20;72.00
40538;DHT22;27925;41.874;12.526;2023-08-30T00:49:54;21.20;72.00
40538;DHT22;27925;41.874;12.526;2023-08-30T00:52:20;21.20;71.90
40538;DHT22;27925;41.874;12.526;2023-08-30T00:54:46;21.20;71.80
40538;DHT22;27925;41.874;12.526;2023-08-30T00:57:12;21.20;71.60
40538;DHT22;27925;41.874;12.526;2023-08-30T00:59:38;21.20;71.80
40538;DHT22;27925;41.874;12.526;2023-08-30T01:02:04;21.20;71.80
40538;DHT22;27925;41.874;12.526;2023-08-30T01:04:30;21.10;71.80
40538;DHT22;27925;41.874;12.526;2023-08-30T01:06:56;21.00;72.10
40538;DHT22;27925;41.874;12.526;2023-08-30T01:09:24;21.00;72.20
40538;DHT22;27925;41.874;12.526;2023-08-30T01:15:00;21.10;72.90
40538;DHT22;27925;41.874;12.526;2023-08-30T01:17:23;21.10;72.30
40538;DHT22;27925;41.874;12.526;2023-08-30T01:20:00;21.10;72.50
40538;DHT22;27925;41.874;12.526;2023-08-30T01:27:35;21.20;72.40
40538;DHT22;27925;41.874;12.526;2023-08-30T01:30:05;21.10;72.10
40538;DHT22;27925;41.874;12.526;2023-08-30T01:32:33;21.10;72.50
40538;DHT22;27925;41.874;12.526;2023-08-30T01:35:00;21.10;72.40
40538;DHT22;27925;41.874;12.526;2023-08-30T01:37:27;21.10;72.70
40538;DHT22;27925;41.874;12.526;2023-08-30T01:39:55;21.00;72.90
40538;DHT22;27925;41.874;12.526;2023-08-30T01:42:23;21.10;73.30
40538;DHT22;27925;41.874;12.526;2023-08-30T01:44:53;21.10;73.00
40538;DHT22;27925;41.874;12.526;2023-08-30T01:47:24;21.00;73.10
40538;DHT22;27925;41.874;12.526;2023-08-30T01:49:51;21.00;73.20
40538;DHT22;27925;41.874;12.526;2023-08-30T01:52:18;21.10;73.50
40538;DHT22;27925;41.874;12.526;2023-08-30T01:54:45;21.10;73.60
40538;DHT22;27925;41.874;12.526;2023-08-30T01:57:12;21.10;73.70
40538;DHT22;27925;41.874;12.526;2023-08-30T01:59:38;21.00;73.70
40538;DHT22;27925;41.874;12.526;2023-08-30T02:02:03;21.00;73.70
40538;DHT22;27925;41.874;12.526;2023-08-30T02:04:30;21.10;73.50
40538;DHT22;27925;41.874;12.526;2023-08-30T02:07:00;21.00;73.20
40538;DHT22;27925;41.874;12.526;2023-08-30T02:09:34;21.00;72.80
40538;DHT22;27925;41.874;12.526;2023-08-30T02:12:07;20.90;72.50
40538;DHT22;27925;41.874;12.526;2023-08-30T02:14:33;20.90;72.50
40538;DHT22;27925;41.874;12.526;2023-08-30T02:16:59;20.80;72.10
40538;DHT22;27925;41.874;12.526;2023-08-30T02:19:25;20.70;72.00
40538;DHT22;27925;41.874;12.526;2023-08-30T02:21:51;20.70;72.00
40538;DHT22;27925;41.874;12.526;2023-08-30T02:24:17;20.60;72.10
40538;DHT22;27925;41.874;12.526;2023-08-30T02:26:43;20.60;72.40
40538;DHT22;27925;41.874;12.526;2023-08-30T02:29:08;20.60;72.20
40538;DHT22;27925;41.874;12.526;2023-08-30T02:31:35;20.60;72.00
40538;DHT22;27925;41.874;12.526;2023-08-30T02:34:01;20.50;72.20
40538;DHT22;27925;41.874;12.526;2023-08-30T02:36:27;20.40;72.30
40538;DHT22;27925;41.874;12.526;2023-08-30T02:38:53;20.40;72.50
40538;DHT22;27925;41.874;12.526;2023-08-30T02:41:19;20.40;72.60
40538;DHT22;27925;41.874;12.526;2023-08-30T02:43:44;20.40;72.70
40538;DHT22;27925;41.874;12.526;2023-08-30T02:46:10;20.40;72.70
40538;DHT22;27925;41.874;12.526;2023-08-30T02:48:36;20.40;72.80
40538;DHT22;27925;41.874;12.526;2023-08-30T02:51:01;20.40;72.80
40538;DHT22;27925;41.874;12.526;2023-08-30T02:53:27;20.30;72.80
40538;DHT22;27925;41.874;12.526;2023-08-30T02:55:53;20.30;73.00
40538;DHT22;27925;41.874;12.526;2023-08-30T02:58:21;20.40;73.20
40538;DHT22;27925;41.874;12.526;2023-08-30T03:00:47;20.40;73.30
40538;DHT22;27925;41.874;12.526;2023-08-30T03:03:12;20.30;73.50
40538;DHT22;27925;41.874;12.526;2023-08-30T03:05:38;20.20;73.60
40538;DHT22;27925;41.874;12.526;2023-08-30T03:08:04;20.20;73.80
40538;DHT22;27925;41.874;12.526;2023-08-30T03:10:29;20.20;74.10
40538;DHT22;27925;41.874;12.526;2023-08-30T03:12:55;20.20;73.90
40538;DHT22;27925;41.874;12.526;2023-08-30T03:15:21;20.10;73.90
40538;DHT22;27925;41.874;12.526;2023-08-30T03:17:46;20.20;74.10
40538;DHT22;27925;41.874;12.526;2023-08-30T03:20:12;20.20;74.00
40538;DHT22;27925;41.874;12.526;2023-08-30T03:22:38;20.30;74.20
40538;DHT22;27925;41.874;12.526;2023-08-30T03:25:04;20.30;73.90
40538;DHT22;27925;41.874;12.526;2023-08-30T03:27:30;20.20;73.90
40538;DHT22;27925;41.874;12.526;2023-08-30T03:29:56;20.20;74.30
40538;DHT22;27925;41.874;12.526;2023-08-30T03:32:21;20.20;74.10
40538;DHT22;27925;41.874;12.526;2023-08-30T03:34:48;20.20;74.20
40538;DHT22;27925;41.874;12.526;2023-08-30T03:37:16;20.20;74.10
40538;DHT22;27925;41.874;12.526;2023-08-30T03:39:43;20.20;74.20
40538;DHT22;27925;41.874;12.526;2023-08-30T03:42:09;20.20;74.50
40538;DHT22;27925;41.874;12.526;2023-08-30T03:44:35;20.20;74.30
40538;DHT22;27925;41.874;12.526;2023-08-30T03:47:00;20.20;74.50
40538;DHT22;27925;41.874;12.526;2023-08-30T03:49:26;20.30;74.40
40538;DHT22;27925;41.874;12.526;2023-08-30T03:51:52;20.20;74.10
40538;DHT22;27925;41.874;12.526;2023-08-30T03:54:17;20.20;74.30
40538;DHT22;27925;41.874;12.526;2023-08-30T03:56:44;20.20;74.40
40538;DHT22;27925;41.874;12.526;2023-08-30T03:59:10;20.20;74.20
40538;DHT22;27925;41.874;12.526;2023-08-30T04:01:36;20.20;74.40
40538;DHT22;27925;41.874;12.526;2023-08-30T04:04:02;20.20;74.40
40538;DHT22;27925;41.874;12.526;2023-08-30T04:06:28;20.20;74.60
40538;DHT22;27925;41.874;12.526;2023-08-30T04:08:53;20.10;74.50
40538;DHT22;27925;41.874;12.526;2023-08-30T04:11:19;20.10;74.70
40538;DHT22;27925;41.874;12.526;2023-08-30T04:13:45;20.10;74.80
40538;DHT22;27925;41.874;12.526;2023-08-30T04:16:10;20.00;74.60
40538;DHT22;27925;41.874;12.526;2023-08-30T04:18:36;20.00;74.80
40538;DHT22;27925;41.874;12.526;2023-08-30T04:21:02;20.00;74.90
40538;DHT22;27925;41.874;12.526;2023-08-30T04:23:29;20.00;74.80
40538;DHT22;27925;41.874;12.526;2023-08-30T04:25:55;20.00;74.80
40538;DHT22;27925;41.874;12.526;2023-08-30T04:28:21;20.00;74.60
40538;DHT22;27925;41.874;12.526;2023-08-30T04:30:47;20.00;74.70
40538;DHT22;27925;41.874;12.526;2023-08-30T04:33:13;20.00;74.70
40538;DHT22;27925;41.874;12.526;2023-08-30T04:35:39;20.00;74.70
40538;DHT22;27925;41.874;12.526;2023-08-30T04:38:04;20.00;74.70
40538;DHT22;27925;41.874;12.526;2023-08-30T04:40:31;20.00;74.70
40538;DHT22;27925;41.874;12.526;2023-08-30T04:43:00;20.00;74.70
40538;DHT22;27925;41.874;12.526;2023-08-30T04:45:26;20.00;75.00
40538;DHT22;27925;41.874;12.526;2023-08-30T04:47:53;19.90;75.10
40538;DHT22;27925;41.874;12.526;2023-08-30T04:50:18;20.00;75.20
40538;DHT22;27925;41.874;12.526;2023-08-30T04:52:44;19.90;75.20
40538;DHT22;27925;41.874;12.526;2023-08-30T04:55:10;19.90;75.20
40538;DHT22;27925;41.874;12.526;2023-08-30T04:57:36;19.90;75.50
40538;DHT22;27925;41.874;12.526;2023-08-30T05:00:02;19.90;75.30
40538;DHT22;27925;41.874;12.526;2023-08-30T05:02:30;19.90;75.50
40538;DHT22;27925;41.874;12.526;2023-08-30T05:04:56;19.80;75.30
40538;DHT22;27925;41.874;12.526;2023-08-30T05:07:22;19.80;75.60
40538;DHT22;27925;41.874;12.526;2023-08-30T05:09:47;19.80;75.40
40538;DHT22;27925;41.874;12.526;2023-08-30T05:12:13;19.90;75.30
40538;DHT22;27925;41.874;12.526;2023-08-30T05:14:39;19.80;75.10
40538;DHT22;27925;41.874;12.526;2023-08-30T05:17:06;19.90;75.10
40538;DHT22;27925;41.874;12.526;2023-08-30T05:19:32;19.90;74.90
40538;DHT22;27925;41.874;12.526;2023-08-30T05:21:58;20.00;74.90
40538;DHT22;27925;41.874;12.526;2023-08-30T05:24:24;19.90;74.60
40538;DHT22;27925;41.874;12.526;2023-08-30T05:26:52;20.00;74.50
40538;DHT22;27925;41.874;12.526;2023-08-30T05:29:18;20.10;74.60
40538;DHT22;27925;41.874;12.526;2023-08-30T05:31:44;20.10;74.00
40538;DHT22;27925;41.874;12.526;2023-08-30T05:34:12;20.10;74.30
40538;DHT22;27925;41.874;12.526;2023-08-30T05:36:38;20.20;74.10
40538;DHT22;27925;41.874;12.526;2023-08-30T05:39:04;20.10;73.70
40538;DHT22;27925;41.874;12.526;2023-08-30T05:41:30;20.20;74.00
40538;DHT22;27925;41.874;12.526;2023-08-30T05:43:55;20.20;73.90
40538;DHT22;27925;41.874;12.526;2023-08-30T05:46:21;20.30;73.80
40538;DHT22;27925;41.874;12.526;2023-08-30T05:48:47;20.40;73.40
40538;DHT22;27925;41.874;12.526;2023-08-30T05:51:13;20.60;73.10
40538;DHT22;27925;41.874;12.526;2023-08-30T05:53:41;20.80;72.80
40538;DHT22;27925;41.874;12.526;2023-08-30T05:56:07;21.10;72.40
40538;DHT22;27925;41.874;12.526;2023-08-30T05:58:33;21.40;71.80
40538;DHT22;27925;41.874;12.526;2023-08-30T06:00:58;21.70;70.80
40538;DHT22;27925;41.874;12.526;2023-08-30T06:03:26;22.00;70.20
